createdAt,value
2023-03-02T00:02:01.203Z,18.95
2023-03-02T00:04:45.742Z,18.23
2023-03-02T00:07:23.892Z,18.38
2023-03-02T00:09:57.386Z,17.63
2023-03-02T00:12:27.411Z,18.27
2023-03-02T00:14:54.980Z,21.10
2023-03-02T00:17:33.357Z,16.95
2023-03-02T00:20:12.203Z,19.35
2023-03-02T00:22:45.416Z,17.67
2023-03-02T00:25:15.160Z,18.85
2023-03-02T00:27:42.335Z,21.40
2023-03-02T00:30:12.457Z,19.95
2023-03-02T00:32:39.647Z,20.63
2023-03-02T00:35:07.638Z,20.75
2023-03-02T00:37:40.964Z,21.92
2023-03-02T00:40:11.701Z,21.00
2023-03-02T00:42:40.037Z,23.50
2023-03-02T00:45:09.061Z,23.08
2023-03-02T00:47:41.511Z,21.08
2023-03-02T00:50:12.623Z,19.40
2023-03-02T00:52:39.494Z,21.65
2023-03-02T00:55:07.520Z,24.02
2023-03-02T00:57:37.412Z,26.58
2023-03-02T01:00:05.776Z,22.13
2023-03-02T01:02:32.744Z,21.08
2023-03-02T01:04:59.701Z,25.40
2023-03-02T01:07:28.544Z,21.77
2023-03-02T01:09:58.183Z,24.90
2023-03-02T01:12:25.172Z,24.38
2023-03-02T01:14:52.642Z,24.20
2023-03-02T01:17:25.267Z,23.13
2023-03-02T01:19:56.595Z,31.45
2023-03-02T01:22:26.447Z,30.85
2023-03-02T01:24:58.895Z,24.95
2023-03-02T01:27:26.254Z,25.92
2023-03-02T01:29:53.115Z,28.95
2023-03-02T01:32:25.726Z,27.85
2023-03-02T01:34:54.128Z,26.20
2023-03-02T01:37:22.937Z,29.13
2023-03-02T01:39:51.470Z,26.35
2023-03-02T01:42:19.209Z,28.77
2023-03-02T01:44:54.212Z,25.42
2023-03-02T01:47:38.978Z,32.65
2023-03-02T01:50:21.765Z,30.00
2023-03-02T01:52:50.992Z,30.73
2023-03-02T01:55:25.656Z,30.30
2023-03-02T01:57:58.157Z,30.77
2023-03-02T02:00:37.755Z,33.58
2023-03-02T02:03:21.160Z,32.17
2023-03-02T02:06:23.581Z,34.25
2023-03-02T02:08:53.036Z,30.90
2023-03-02T02:11:20.075Z,32.63
2023-03-02T02:13:49.111Z,34.65
2023-03-02T02:16:16.363Z,30.23
2023-03-02T02:18:44.467Z,27.77
2023-03-02T02:21:12.993Z,23.98
2023-03-02T02:23:55.275Z,24.02
2023-03-02T02:26:44.270Z,23.07
2023-03-02T02:29:22.803Z,24.73
2023-03-02T02:32:02.190Z,22.75
2023-03-02T02:34:45.131Z,22.08
2023-03-02T02:37:23.903Z,22.77
2023-03-02T02:39:52.585Z,25.92
2023-03-02T02:42:28.297Z,23.38
2023-03-02T02:45:01.253Z,25.98
2023-03-02T02:47:30.139Z,23.33
2023-03-02T02:49:58.827Z,24.10
2023-03-02T02:52:32.272Z,25.48
2023-03-02T02:54:59.321Z,26.17
2023-03-02T02:57:30.457Z,27.60
2023-03-02T03:00:00.671Z,26.45
2023-03-02T03:02:32.127Z,23.40
2023-03-02T03:05:05.517Z,29.58
2023-03-02T03:07:34.269Z,29.00
2023-03-02T03:10:35.366Z,27.80
2023-03-02T03:13:03.024Z,25.90
2023-03-02T03:15:30.237Z,25.17
2023-03-02T03:18:01.702Z,28.73
2023-03-02T03:20:29.418Z,26.55
2023-03-02T03:22:59.278Z,25.77
2023-03-02T03:25:29.189Z,25.52
2023-03-02T03:27:56.052Z,27.38
2023-03-02T03:30:23.044Z,27.35
2023-03-02T03:32:50.296Z,27.27
2023-03-02T03:35:17.441Z,29.05
2023-03-02T03:37:45.774Z,28.95
2023-03-02T03:40:13.140Z,30.70
2023-03-02T03:42:40.248Z,26.52
2023-03-02T03:45:08.954Z,30.23
2023-03-02T03:47:36.595Z,52.05
2023-03-02T03:50:03.974Z,68.20
2023-03-02T03:52:31.462Z,126.55
2023-03-02T03:55:00.131Z,114.07
2023-03-02T03:57:30.316Z,79.10
2023-03-02T03:59:57.240Z,118.07
2023-03-02T04:02:24.238Z,117.57
2023-03-02T04:04:51.541Z,66.50
2023-03-02T04:07:19.017Z,75.65
2023-03-02T04:09:48.238Z,72.40
2023-03-02T04:12:16.744Z,82.38
2023-03-02T04:14:43.736Z,44.28
2023-03-02T04:17:10.661Z,51.40
2023-03-02T04:19:37.720Z,35.47
2023-03-02T04:22:05.143Z,35.97
2023-03-02T04:24:32.873Z,24.88
2023-03-02T04:27:00.395Z,30.42
2023-03-02T04:29:27.364Z,34.35
2023-03-02T04:31:54.723Z,45.55
2023-03-02T04:34:21.786Z,51.53
2023-03-02T04:36:51.724Z,61.92
2023-03-02T04:39:20.170Z,57.05
2023-03-02T04:41:48.174Z,63.17
2023-03-02T04:44:18.120Z,80.95
2023-03-02T04:46:48.872Z,58.75
2023-03-02T04:49:18.793Z,51.88
2023-03-02T04:51:48.750Z,62.92
2023-03-02T04:54:28.206Z,90.28
2023-03-02T04:56:56.424Z,97.05
2023-03-02T04:59:28.101Z,77.22
2023-03-02T05:02:00.647Z,71.28
2023-03-02T05:04:30.946Z,34.78
2023-03-02T05:06:59.951Z,101.95
2023-03-02T05:09:29.551Z,61.78
2023-03-02T05:12:01.686Z,98.45
2023-03-02T05:14:29.583Z,74.93
2023-03-02T05:16:56.883Z,70.30
2023-03-02T05:19:26.286Z,67.60
2023-03-02T05:21:53.566Z,74.32
2023-03-02T05:24:20.898Z,108.68
2023-03-02T05:26:47.793Z,99.35
2023-03-02T05:29:14.828Z,99.32
2023-03-02T05:31:46.223Z,93.40
2023-03-02T05:34:16.437Z,81.57
2023-03-02T05:36:46.216Z,76.68
2023-03-02T05:39:14.760Z,89.55
2023-03-02T05:41:44.984Z,43.05
2023-03-02T05:44:15.152Z,60.67
2023-03-02T05:46:42.970Z,62.83
2023-03-02T05:49:10.921Z,63.00
2023-03-02T05:51:43.666Z,36.38
2023-03-02T05:54:10.575Z,135.77
2023-03-02T05:56:39.607Z,90.97
2023-03-02T05:59:07.439Z,40.50
2023-03-02T06:01:36.869Z,75.22
2023-03-02T06:04:03.796Z,55.13
2023-03-02T06:06:32.322Z,67.70
2023-03-02T06:09:00.722Z,66.97
2023-03-02T06:11:28.126Z,89.13
2023-03-02T06:13:54.988Z,63.97
2023-03-02T06:16:21.950Z,79.00
2023-03-02T06:18:52.914Z,112.20
2023-03-02T06:21:19.800Z,94.18
2023-03-02T06:23:46.660Z,78.60
2023-03-02T06:26:13.606Z,68.32
2023-03-02T06:28:52.109Z,59.10
2023-03-02T06:31:21.037Z,58.00
2023-03-02T06:33:47.994Z,67.25
2023-03-02T06:36:16.919Z,53.13
2023-03-02T06:38:44.092Z,48.20
2023-03-02T06:41:10.953Z,44.17
2023-03-02T06:43:40.683Z,46.25
2023-03-02T06:46:07.673Z,50.20
2023-03-02T06:48:34.648Z,100.70
2023-03-02T06:51:01.481Z,111.95
2023-03-02T06:53:28.657Z,117.45
2023-03-02T06:55:55.487Z,53.58
2023-03-02T06:58:22.331Z,86.53
2023-03-02T07:00:49.205Z,81.57
2023-03-02T07:03:17.382Z,67.72
2023-03-02T07:05:46.152Z,60.85
2023-03-02T07:08:13.285Z,50.60
2023-03-02T07:10:40.135Z,56.85
2023-03-02T07:13:09.112Z,47.90
2023-03-02T07:15:39.398Z,48.08
2023-03-02T07:18:06.599Z,48.85
2023-03-02T07:20:34.258Z,43.50
2023-03-02T07:23:01.302Z,43.92
2023-03-02T07:25:28.182Z,50.05
2023-03-02T07:27:55.194Z,48.20
2023-03-02T07:30:22.846Z,36.67
2023-03-02T07:32:50.014Z,37.63
2023-03-02T07:35:17.427Z,38.75
2023-03-02T07:37:44.897Z,35.78
2023-03-02T07:40:13.463Z,38.05
2023-03-02T07:42:40.671Z,43.05
2023-03-02T07:45:08.245Z,37.55
2023-03-02T07:47:35.200Z,35.72
2023-03-02T07:50:02.395Z,33.47
2023-03-02T07:52:30.966Z,31.65
2023-03-02T07:54:59.334Z,38.08
2023-03-02T07:57:29.245Z,32.33
2023-03-02T07:59:56.225Z,36.40
2023-03-02T08:02:25.573Z,37.70
2023-03-02T08:04:53.223Z,33.28
2023-03-02T08:07:20.197Z,32.88
2023-03-02T08:09:47.002Z,33.17
2023-03-02T08:12:13.797Z,35.22
2023-03-02T08:14:40.654Z,29.38
2023-03-02T08:17:07.882Z,33.88
2023-03-02T08:19:34.778Z,31.58
2023-03-02T08:22:02.424Z,32.63
2023-03-02T08:24:29.389Z,28.67
2023-03-02T08:26:56.289Z,26.88
2023-03-02T08:29:24.613Z,23.27
2023-03-02T08:31:51.534Z,27.52
2023-03-02T08:34:18.531Z,28.95
2023-03-02T08:36:45.491Z,29.42
2023-03-02T08:39:12.712Z,31.25
2023-03-02T08:41:39.929Z,28.02
2023-03-02T08:44:07.517Z,30.73
2023-03-02T08:46:34.607Z,28.45
2023-03-02T08:49:01.499Z,32.05
2023-03-02T08:51:28.845Z,29.83
2023-03-02T08:53:56.531Z,25.88
2023-03-02T08:56:25.074Z,27.60
2023-03-02T08:58:54.071Z,26.25
2023-03-02T09:01:25.770Z,24.73
2023-03-02T09:03:53.007Z,27.10
2023-03-02T09:06:20.602Z,33.83
2023-03-02T09:08:48.334Z,30.75
2023-03-02T09:11:16.042Z,28.50
2023-03-02T09:13:43.197Z,30.85
2023-03-02T09:16:11.871Z,28.15
2023-03-02T09:18:39.179Z,31.50
2023-03-02T09:21:06.702Z,24.75
2023-03-02T09:23:36.469Z,25.45
2023-03-02T09:26:05.062Z,24.30
2023-03-02T09:28:32.291Z,25.02
2023-03-02T09:31:03.137Z,22.38
2023-03-02T09:33:31.649Z,22.20
2023-03-02T09:35:58.562Z,21.27
2023-03-02T09:38:25.601Z,19.83
2023-03-02T09:41:28.950Z,19.60
2023-03-02T09:44:38.316Z,21.40
2023-03-02T09:47:40.753Z,20.60
2023-03-02T09:50:45.585Z,18.38
2023-03-02T09:53:30.640Z,15.52
2023-03-02T09:56:02.509Z,14.13
2023-03-02T09:58:37.854Z,14.63
2023-03-02T10:01:15.502Z,16.38
2023-03-02T10:04:21.833Z,15.38
2023-03-02T10:07:12.481Z,15.68
2023-03-02T10:09:40.831Z,15.23
2023-03-02T10:12:35.677Z,16.55
2023-03-02T10:15:23.626Z,16.02
2023-03-02T10:18:31.842Z,15.73
2023-03-02T10:21:41.165Z,14.18
2023-03-02T10:24:11.359Z,13.75
2023-03-02T10:27:01.617Z,13.95
2023-03-02T10:29:54.832Z,13.68
2023-03-02T10:32:31.401Z,16.13
2023-03-02T10:35:00.801Z,12.60
2023-03-02T10:37:31.383Z,12.43
2023-03-02T10:39:58.322Z,11.88
2023-03-02T10:42:42.780Z,15.13
2023-03-02T10:45:31.204Z,15.13
2023-03-02T10:48:12.188Z,14.70
2023-03-02T10:50:39.923Z,15.27
2023-03-02T10:53:15.433Z,13.40
2023-03-02T10:55:52.852Z,13.73
2023-03-02T10:58:32.574Z,12.48
2023-03-02T11:01:04.316Z,11.43
2023-03-02T11:03:32.498Z,10.95
2023-03-02T11:06:20.101Z,13.45
2023-03-02T11:08:57.365Z,12.10
2023-03-02T11:11:25.595Z,14.23
2023-03-02T11:13:53.033Z,10.65
2023-03-02T11:16:19.946Z,12.48
2023-03-02T11:18:59.527Z,13.52
2023-03-02T11:21:58.407Z,11.55
2023-03-02T11:24:48.430Z,13.23
2023-03-02T11:27:22.635Z,10.90
2023-03-02T11:29:55.451Z,13.15
2023-03-02T11:32:31.348Z,10.23
2023-03-02T11:35:13.697Z,13.15
2023-03-02T11:37:49.690Z,8.87
2023-03-02T11:41:03.068Z,11.43
2023-03-02T11:43:29.988Z,9.43
2023-03-02T11:46:10.876Z,11.40
2023-03-02T11:48:48.844Z,13.48
2023-03-02T11:51:26.428Z,9.35
2023-03-02T11:54:00.508Z,9.48
2023-03-02T11:56:32.337Z,10.50
2023-03-02T11:59:16.070Z,10.77
2023-03-02T12:01:49.566Z,8.45
2023-03-02T12:04:35.856Z,9.50
2023-03-02T12:07:16.830Z,11.55
2023-03-02T12:09:43.751Z,7.53
2023-03-02T12:12:46.874Z,10.68
2023-03-02T12:15:37.713Z,9.90
2023-03-02T12:18:21.554Z,10.88
2023-03-02T12:21:06.863Z,10.75
2023-03-02T12:23:48.846Z,9.25
2023-03-02T12:26:21.823Z,10.07
2023-03-02T12:31:47.877Z,7.07
2023-03-02T12:34:38.135Z,7.18
2023-03-02T12:37:37.738Z,9.07
2023-03-02T12:40:53.590Z,10.45
2023-03-02T12:43:33.311Z,8.93
2023-03-02T12:46:27.961Z,9.43
2023-03-02T12:49:31.414Z,10.15
2023-03-02T12:52:01.830Z,10.60
2023-03-02T12:54:33.614Z,32.65
2023-03-02T12:57:15.573Z,26.33
2023-03-02T12:59:44.112Z,8.60
2023-03-02T13:02:33.412Z,8.65
2023-03-02T13:05:07.001Z,8.50
2023-03-02T13:08:00.585Z,11.00
2023-03-02T13:10:30.857Z,8.60
2023-03-02T13:13:00.277Z,8.50
2023-03-02T13:15:27.263Z,10.70
2023-03-02T13:17:58.777Z,8.75
2023-03-02T13:20:29.531Z,9.98
2023-03-02T13:22:56.954Z,8.75
2023-03-02T13:25:29.124Z,8.90
2023-03-02T13:28:07.491Z,10.77
2023-03-02T13:30:38.245Z,12.52
2023-03-02T13:33:23.704Z,8.63
2023-03-02T13:35:51.217Z,11.02
2023-03-02T13:38:21.585Z,9.40
2023-03-02T13:40:52.202Z,10.10
2023-03-02T13:43:37.228Z,8.80
2023-03-02T13:46:28.708Z,9.10
2023-03-02T13:49:14.237Z,9.02
2023-03-02T13:51:46.692Z,10.63
2023-03-02T13:54:22.131Z,8.27
2023-03-02T13:56:51.318Z,9.90
2023-03-02T13:59:21.252Z,11.05
2023-03-02T14:01:48.797Z,9.27
2023-03-02T14:04:23.260Z,10.77
2023-03-02T14:06:52.767Z,11.73
2023-03-02T14:09:20.643Z,13.05
2023-03-02T14:11:52.766Z,14.85
2023-03-02T14:14:24.712Z,15.43
2023-03-02T14:16:51.932Z,10.60
2023-03-02T14:19:20.133Z,32.97
2023-03-02T14:21:47.947Z,11.25
2023-03-02T14:24:15.263Z,9.43
2023-03-02T14:26:47.182Z,9.13
2023-03-02T14:29:31.553Z,10.40
2023-03-02T14:32:06.478Z,10.95
2023-03-02T14:34:36.130Z,12.10
2023-03-02T14:37:13.980Z,10.63
2023-03-02T14:39:54.203Z,9.48
2023-03-02T14:42:23.339Z,10.77
2023-03-02T14:44:51.229Z,9.70
2023-03-02T14:47:19.534Z,8.55
2023-03-02T14:49:47.319Z,8.93
2023-03-02T14:52:24.705Z,8.32
2023-03-02T14:54:57.882Z,12.00
2023-03-02T14:57:28.710Z,7.57
2023-03-02T14:59:56.636Z,7.70
2023-03-02T15:02:26.498Z,6.00
2023-03-02T15:04:56.901Z,7.68
2023-03-02T15:07:27.261Z,9.35
2023-03-02T15:09:58.416Z,9.02
2023-03-02T15:12:25.739Z,7.35
2023-03-02T15:14:52.574Z,8.32
2023-03-02T15:17:19.553Z,7.60
2023-03-02T15:19:47.400Z,8.98
2023-03-02T15:22:14.324Z,10.63
2023-03-02T15:24:41.239Z,9.80
2023-03-02T15:27:08.438Z,7.53
2023-03-02T15:29:35.410Z,7.47
2023-03-02T15:32:02.419Z,8.00
2023-03-02T15:34:29.477Z,8.23
2023-03-02T15:36:56.327Z,6.65
2023-03-02T15:39:23.157Z,7.63
2023-03-02T15:41:50.036Z,8.48
2023-03-02T15:44:23.862Z,9.23
2023-03-02T15:46:54.149Z,8.02
2023-03-02T15:49:24.346Z,9.73
2023-03-02T15:51:52.110Z,8.27
2023-03-02T15:54:19.261Z,6.20
2023-03-02T15:56:51.805Z,9.82
2023-03-02T15:59:24.902Z,8.68
2023-03-02T16:04:19.914Z,9.38
2023-03-02T16:06:49.942Z,10.10
2023-03-02T16:09:19.733Z,10.45
2023-03-02T16:11:49.071Z,8.95
2023-03-02T16:14:16.123Z,11.85
2023-03-02T16:16:45.439Z,9.65
2023-03-02T16:19:18.481Z,12.23
2023-03-02T16:21:47.474Z,11.57
2023-03-02T16:24:16.157Z,14.25
2023-03-02T16:26:44.678Z,12.80
2023-03-02T16:29:14.843Z,32.65
2023-03-02T16:31:46.030Z,21.60
2023-03-02T16:34:14.041Z,18.48
2023-03-02T16:36:42.229Z,19.98
2023-03-02T16:39:11.678Z,18.58
2023-03-02T16:41:44.649Z,18.73
2023-03-02T16:46:43.379Z,19.42
2023-03-02T16:49:12.617Z,21.55
2023-03-02T16:51:40.646Z,28.55
2023-03-02T16:54:07.770Z,35.85
2023-03-02T16:56:34.801Z,42.50
2023-03-02T16:59:01.744Z,32.33
2023-03-02T17:01:29.271Z,30.48
2023-03-02T17:03:57.244Z,23.52
2023-03-02T17:06:24.588Z,25.42
2023-03-02T17:08:51.818Z,22.13
2023-03-02T17:11:19.454Z,22.88
2023-03-02T17:13:47.029Z,22.92
2023-03-02T17:16:16.124Z,16.08
2023-03-02T17:18:46.865Z,15.80
2023-03-02T17:21:16.233Z,14.48
2023-03-02T17:23:44.453Z,16.80
2023-03-02T17:26:11.358Z,16.73
2023-03-02T17:28:39.269Z,18.52
2023-03-02T17:31:06.830Z,18.48
2023-03-02T17:33:34.442Z,21.25
2023-03-02T17:36:08.566Z,28.88
2023-03-02T17:38:38.398Z,49.13
2023-03-02T17:41:06.874Z,74.22
2023-03-02T17:43:36.127Z,62.58
2023-03-02T17:46:20.361Z,47.45
2023-03-02T17:48:53.060Z,29.83
2023-03-02T17:51:22.445Z,27.55
2023-03-02T17:53:51.447Z,35.53
2023-03-02T17:56:22.389Z,30.55
2023-03-02T17:59:05.004Z,25.98
2023-03-02T18:01:33.632Z,19.10
2023-03-02T18:04:00.827Z,32.55
2023-03-02T18:06:28.279Z,28.95
2023-03-02T18:08:55.160Z,39.63
2023-03-02T18:11:24.986Z,50.42
2023-03-02T18:13:57.893Z,58.78
2023-03-02T18:18:57.464Z,69.05
2023-03-02T18:21:24.441Z,125.88
2023-03-02T18:23:51.873Z,74.20
2023-03-02T18:26:18.924Z,96.43
2023-03-02T18:28:45.964Z,60.63
2023-03-02T18:31:16.719Z,36.67
2023-03-02T18:33:45.120Z,43.67
2023-03-02T18:36:12.508Z,43.20
2023-03-02T18:38:39.507Z,31.15
2023-03-02T18:41:08.839Z,30.55
2023-03-02T18:43:41.290Z,37.97
2023-03-02T18:46:18.032Z,57.53
2023-03-02T18:48:44.992Z,41.30
2023-03-02T18:51:11.819Z,68.30
2023-03-02T18:53:39.445Z,54.72
2023-03-02T18:56:06.849Z,45.60
2023-03-02T18:58:34.689Z,39.95
2023-03-02T19:01:02.501Z,73.15
2023-03-02T19:03:30.831Z,90.07
2023-03-02T19:05:58.361Z,76.28
2023-03-02T19:08:25.764Z,47.40
2023-03-02T19:10:54.699Z,40.33
2023-03-02T19:13:22.597Z,36.10
2023-03-02T19:15:49.648Z,64.10
2023-03-02T19:18:19.273Z,38.45
2023-03-02T19:20:48.057Z,33.00
2023-03-02T19:23:15.760Z,37.40
2023-03-02T19:25:43.742Z,45.88
2023-03-02T19:28:11.475Z,40.55
2023-03-02T19:30:40.034Z,63.13
2023-03-02T19:33:09.208Z,58.60
2023-03-02T19:35:37.776Z,31.90
2023-03-02T19:38:06.838Z,28.88
2023-03-02T19:40:34.632Z,28.35
2023-03-02T19:43:01.996Z,29.80
2023-03-02T19:45:32.734Z,42.38
2023-03-02T19:48:01.744Z,37.28
2023-03-02T19:50:29.796Z,49.78
2023-03-02T19:52:57.909Z,50.13
2023-03-02T19:55:26.423Z,37.80
2023-03-02T19:58:00.065Z,40.00
2023-03-02T20:00:30.422Z,35.50
2023-03-02T20:02:58.227Z,41.25
2023-03-02T20:05:27.719Z,31.90
2023-03-02T20:07:55.299Z,32.03
2023-03-02T20:10:47.575Z,34.30
2023-03-02T20:13:14.481Z,34.15
2023-03-02T20:15:44.707Z,41.45
2023-03-02T20:18:19.010Z,41.42
2023-03-02T20:20:47.220Z,41.00
2023-03-02T20:23:15.074Z,42.28
2023-03-02T20:25:42.488Z,41.28
2023-03-02T20:28:12.161Z,38.03
2023-03-02T20:30:46.751Z,36.33
2023-03-02T20:33:15.369Z,36.45
2023-03-02T20:35:45.318Z,35.92
2023-03-02T20:38:34.639Z,34.78
2023-03-02T20:41:03.705Z,37.30
2023-03-02T20:43:30.716Z,36.28
2023-03-02T20:45:59.528Z,37.63
2023-03-02T20:48:27.290Z,36.28
2023-03-02T20:50:55.158Z,39.28
2023-03-02T20:53:22.174Z,39.33
2023-03-02T20:55:49.514Z,40.60
2023-03-02T20:58:16.821Z,41.85
2023-03-02T21:00:43.782Z,44.55
2023-03-02T21:03:10.708Z,50.38
2023-03-02T21:05:40.895Z,49.67
2023-03-02T21:08:12.626Z,46.05
2023-03-02T21:10:39.598Z,50.03
2023-03-02T21:13:07.737Z,43.72
2023-03-02T21:15:37.610Z,43.05
2023-03-02T21:18:05.361Z,47.28
2023-03-02T21:20:35.824Z,45.92
2023-03-02T21:23:03.530Z,46.03
2023-03-02T21:25:30.716Z,46.88
2023-03-02T21:27:58.486Z,47.33
2023-03-02T21:30:29.863Z,47.13
2023-03-02T21:32:57.420Z,50.58
2023-03-02T21:35:25.041Z,54.90
2023-03-02T21:37:56.637Z,53.55
2023-03-02T21:40:31.218Z,58.17
2023-03-02T21:43:00.396Z,55.42
2023-03-02T21:45:28.730Z,58.08
2023-03-02T21:47:55.636Z,60.08
2023-03-02T21:50:29.997Z,58.17
2023-03-02T21:52:59.359Z,62.67
2023-03-02T21:55:28.886Z,58.47
2023-03-02T21:57:57.353Z,62.33
2023-03-02T22:00:38.667Z,61.95
2023-03-02T22:03:06.759Z,59.65
2023-03-02T22:05:34.550Z,64.90
2023-03-02T22:08:01.422Z,60.67
2023-03-02T22:10:47.082Z,66.45
2023-03-02T22:13:23.868Z,67.68
2023-03-02T22:16:10.547Z,65.65
2023-03-02T22:18:37.680Z,68.57
2023-03-02T22:21:17.988Z,74.72
2023-03-02T22:23:44.810Z,75.65
2023-03-02T22:26:17.017Z,77.22
2023-03-02T22:28:43.909Z,73.38
2023-03-02T22:31:22.498Z,76.07
2023-03-02T22:33:50.125Z,71.05
2023-03-02T22:36:26.239Z,76.10
2023-03-02T22:38:56.805Z,68.30
2023-03-02T22:41:23.694Z,74.28
2023-03-02T22:43:52.901Z,70.30
2023-03-02T22:46:22.889Z,95.10
2023-03-02T22:48:52.256Z,78.70
2023-03-02T22:51:27.918Z,69.28
2023-03-02T22:54:00.424Z,68.88
2023-03-02T22:56:42.106Z,62.72
2023-03-02T22:59:27.465Z,61.88
2023-03-02T23:02:01.046Z,60.88
2023-03-02T23:04:35.244Z,61.67
2023-03-02T23:07:16.936Z,64.32
2023-03-02T23:09:44.431Z,59.08
2023-03-02T23:12:27.651Z,68.68
2023-03-02T23:14:59.397Z,51.80
2023-03-02T23:17:36.409Z,52.20
2023-03-02T23:20:07.619Z,60.40
2023-03-02T23:22:35.831Z,56.33
2023-03-02T23:25:03.539Z,44.40
2023-03-02T23:27:30.360Z,43.75
2023-03-02T23:29:57.249Z,46.78
2023-03-02T23:32:24.228Z,37.78
2023-03-02T23:34:51.184Z,115.97
2023-03-02T23:37:18.000Z,40.60
2023-03-02T23:39:46.141Z,61.70
2023-03-02T23:42:13.137Z,104.47
2023-03-02T23:44:39.954Z,72.97
2023-03-02T23:47:07.389Z,41.58
2023-03-02T23:49:34.272Z,55.35
2023-03-02T23:52:01.131Z,60.10
2023-03-02T23:54:27.954Z,57.85
2023-03-02T23:56:54.967Z,40.90
2023-03-02T23:59:21.838Z,55.10
